sensor_id;sensor_type;location;lat;lon;timestamp;pressure;altitude;pressure_sealevel;temperature;humidity
37778;BME280;23615;51.506;7.678;2022-09-17T00:01:07;99569.44;;;11.20;97.80
37778;BME280;23615;51.506;7.678;2022-09-17T00:03:33;99557.25;;;11.24;97.59
37778;BME280;23615;51.506;7.678;2022-09-17T00:06:08;99566.69;;;11.15;97.01
37778;BME280;23615;51.506;7.678;2022-09-17T00:08:36;99562.69;;;11.29;97.34
37778;BME280;23615;51.506;7.678;2022-09-17T00:11:13;99566.22;;;11.18;97.25
37778;BME280;23615;51.506;7.678;2022-09-17T00:13:40;99573.19;;;11.19;97.76
37778;BME280;23615;51.506;7.678;2022-09-17T00:16:06;99567.28;;;11.17;97.42
37778;BME280;23615;51.506;7.678;2022-09-17T00:18:32;99568.97;;;11.23;97.20
37778;BME280;23615;51.506;7.678;2022-09-17T00:20:58;99572.00;;;11.27;97.38
37778;BME280;23615;51.506;7.678;2022-09-17T00:23:24;99572.47;;;11.23;97.50
37778;BME280;23615;51.506;7.678;2022-09-17T00:25:49;99565.09;;;11.02;98.12
37778;BME280;23615;51.506;7.678;2022-09-17T00:28:14;99564.59;;;11.17;97.83
37778;BME280;23615;51.506;7.678;2022-09-17T00:30:41;99566.28;;;11.06;97.68
37778;BME280;23615;51.506;7.678;2022-09-17T00:33:08;99571.88;;;11.21;97.59
37778;BME280;23615;51.506;7.678;2022-09-17T00:35:35;99574.31;;;11.23;97.66
37778;BME280;23615;51.506;7.678;2022-09-17T00:38:00;99575.13;;;11.23;97.67
37778;BME280;23615;51.506;7.678;2022-09-17T00:40:25;99577.56;;;11.25;97.45
37778;BME280;23615;51.506;7.678;2022-09-17T00:42:51;99575.06;;;11.18;97.34
37778;BME280;23615;51.506;7.678;2022-09-17T00:45:17;99571.56;;;11.18;97.31
37778;BME280;23615;51.506;7.678;2022-09-17T00:50:40;99571.88;;;11.21;97.43
37778;BME280;23615;51.506;7.678;2022-09-17T00:53:13;99572.06;;;11.03;97.95
37778;BME280;23615;51.506;7.678;2022-09-17T00:55:42;99584.34;;;11.16;98.25
37778;BME280;23615;51.506;7.678;2022-09-17T00:58:10;99572.88;;;11.04;98.42
37778;BME280;23615;51.506;7.678;2022-09-17T01:00:36;99580.22;;;10.97;98.69
37778;BME280;23615;51.506;7.678;2022-09-17T01:03:01;99579.03;;;11.04;98.21
37778;BME280;23615;51.506;7.678;2022-09-17T01:13:22;99579.28;;;11.03;98.12
37778;BME280;23615;51.506;7.678;2022-09-17T01:18:44;99591.81;;;11.02;98.48
37778;BME280;23615;51.506;7.678;2022-09-17T01:24:04;99586.59;;;10.96;98.46
37778;BME280;23615;51.506;7.678;2022-09-17T01:30:25;99590.22;;;11.01;97.80
37778;BME280;23615;51.506;7.678;2022-09-17T01:33:05;99586.16;;;10.99;97.67
37778;BME280;23615;51.506;7.678;2022-09-17T01:43:24;99596.69;;;10.94;97.43
37778;BME280;23615;51.506;7.678;2022-09-17T01:45:56;99600.09;;;10.89;97.36
37778;BME280;23615;51.506;7.678;2022-09-17T01:48:29;99597.56;;;10.82;97.47
37778;BME280;23615;51.506;7.678;2022-09-17T01:51:16;99604.88;;;10.75;97.77
37778;BME280;23615;51.506;7.678;2022-09-17T01:53:54;99605.56;;;10.82;98.00
37778;BME280;23615;51.506;7.678;2022-09-17T01:56:26;99604.06;;;10.75;97.95
37778;BME280;23615;51.506;7.678;2022-09-17T01:59:06;99601.97;;;10.77;98.14
37778;BME280;23615;51.506;7.678;2022-09-17T02:01:34;99605.91;;;10.74;97.85
37778;BME280;23615;51.506;7.678;2022-09-17T02:04:10;99606.97;;;10.73;97.82
37778;BME280;23615;51.506;7.678;2022-09-17T02:06:42;99607.78;;;10.74;97.68
37778;BME280;23615;51.506;7.678;2022-09-17T02:09:17;99606.75;;;10.63;98.44
37778;BME280;23615;51.506;7.678;2022-09-17T02:11:51;99598.84;;;10.57;98.59
37778;BME280;23615;51.506;7.678;2022-09-17T02:14:29;99609.19;;;10.65;98.56
37778;BME280;23615;51.506;7.678;2022-09-17T02:17:08;99608.63;;;10.63;99.08
37778;BME280;23615;51.506;7.678;2022-09-17T02:19:36;99615.22;;;10.60;98.80
37778;BME280;23615;51.506;7.678;2022-09-17T02:27:26;99608.94;;;10.66;98.79
37778;BME280;23615;51.506;7.678;2022-09-17T02:29:56;99618.69;;;10.49;99.21
37778;BME280;23615;51.506;7.678;2022-09-17T02:32:22;99613.50;;;10.54;99.40
37778;BME280;23615;51.506;7.678;2022-09-17T02:34:48;99608.38;;;10.64;99.28
37778;BME280;23615;51.506;7.678;2022-09-17T02:37:14;99610.78;;;10.66;99.17
37778;BME280;23615;51.506;7.678;2022-09-17T02:39:40;99617.31;;;10.58;99.60
37778;BME280;23615;51.506;7.678;2022-09-17T02:45:39;99602.69;;;10.72;98.58
37778;BME280;23615;51.506;7.678;2022-09-17T02:48:35;99612.41;;;10.67;98.88
37778;BME280;23615;51.506;7.678;2022-09-17T02:53:56;99611.50;;;10.49;99.45
37778;BME280;23615;51.506;7.678;2022-09-17T02:59:19;99615.81;;;10.62;99.55
37778;BME280;23615;51.506;7.678;2022-09-17T03:02:02;99597.81;;;10.69;99.49
37778;BME280;23615;51.506;7.678;2022-09-17T03:04:29;99603.97;;;10.58;99.10
37778;BME280;23615;51.506;7.678;2022-09-17T03:06:55;99608.72;;;10.56;99.70
37778;BME280;23615;51.506;7.678;2022-09-17T03:09:23;99610.25;;;10.52;99.79
37778;BME280;23615;51.506;7.678;2022-09-17T03:11:48;99611.38;;;10.56;99.51
37778;BME280;23615;51.506;7.678;2022-09-17T03:14:14;99616.72;;;10.56;99.75
37778;BME280;23615;51.506;7.678;2022-09-17T03:16:39;99624.38;;;10.64;99.42
37778;BME280;23615;51.506;7.678;2022-09-17T03:19:04;99621.47;;;10.66;99.17
37778;BME280;23615;51.506;7.678;2022-09-17T03:21:30;99618.59;;;10.56;99.72
37778;BME280;23615;51.506;7.678;2022-09-17T03:23:55;99615.13;;;10.55;99.78
37778;BME280;23615;51.506;7.678;2022-09-17T03:26:21;99621.00;;;10.57;99.99
37778;BME280;23615;51.506;7.678;2022-09-17T03:28:47;99620.56;;;10.60;99.64
37778;BME280;23615;51.506;7.678;2022-09-17T03:31:12;99617.06;;;10.60;99.53
37778;BME280;23615;51.506;7.678;2022-09-17T03:33:37;99617.19;;;10.53;99.40
37778;BME280;23615;51.506;7.678;2022-09-17T03:36:03;99617.53;;;10.57;99.50
37778;BME280;23615;51.506;7.678;2022-09-17T03:38:28;99615.66;;;10.69;99.12
37778;BME280;23615;51.506;7.678;2022-09-17T03:41:02;99621.94;;;10.63;99.09
37778;BME280;23615;51.506;7.678;2022-09-17T03:43:27;99627.38;;;10.68;98.70
37778;BME280;23615;51.506;7.678;2022-09-17T03:45:53;99623.94;;;10.56;98.85
37778;BME280;23615;51.506;7.678;2022-09-17T03:48:19;99640.03;;;10.49;99.32
37778;BME280;23615;51.506;7.678;2022-09-17T03:50:44;99637.13;;;10.39;99.53
37778;BME280;23615;51.506;7.678;2022-09-17T03:53:09;99648.53;;;10.46;99.63
37778;BME280;23615;51.506;7.678;2022-09-17T03:55:37;99644.47;;;10.43;99.37
37778;BME280;23615;51.506;7.678;2022-09-17T03:58:02;99643.50;;;10.49;99.03
37778;BME280;23615;51.506;7.678;2022-09-17T04:00:28;99645.59;;;10.47;99.46
37778;BME280;23615;51.506;7.678;2022-09-17T04:02:53;99642.00;;;10.42;99.54
37778;BME280;23615;51.506;7.678;2022-09-17T04:05:18;99649.78;;;10.43;99.20
37778;BME280;23615;51.506;7.678;2022-09-17T04:07:43;99648.97;;;10.55;98.87
37778;BME280;23615;51.506;7.678;2022-09-17T04:10:09;99633.66;;;10.50;98.38
37778;BME280;23615;51.506;7.678;2022-09-17T04:12:34;99639.44;;;10.47;98.74
37778;BME280;23615;51.506;7.678;2022-09-17T04:14:59;99643.06;;;10.53;99.07
37778;BME280;23615;51.506;7.678;2022-09-17T04:17:26;99640.25;;;10.47;98.79
37778;BME280;23615;51.506;7.678;2022-09-17T04:19:51;99642.00;;;10.42;99.00
37778;BME280;23615;51.506;7.678;2022-09-17T04:22:17;99649.44;;;10.40;98.46
37778;BME280;23615;51.506;7.678;2022-09-17T04:24:42;99655.91;;;10.32;98.45
37778;BME280;23615;51.506;7.678;2022-09-17T04:27:08;99649.19;;;10.30;98.62
37778;BME280;23615;51.506;7.678;2022-09-17T04:29:33;99650.38;;;10.34;98.50
37778;BME280;23615;51.506;7.678;2022-09-17T04:31:58;99652.00;;;10.35;98.73
37778;BME280;23615;51.506;7.678;2022-09-17T04:34:23;99654.53;;;10.30;98.75
37778;BME280;23615;51.506;7.678;2022-09-17T04:36:49;99651.75;;;10.36;98.79
37778;BME280;23615;51.506;7.678;2022-09-17T04:39:14;99648.97;;;10.43;98.38
37778;BME280;23615;51.506;7.678;2022-09-17T04:41:39;99648.72;;;10.56;97.43
37778;BME280;23615;51.506;7.678;2022-09-17T04:44:04;99643.75;;;10.48;97.81
37778;BME280;23615;51.506;7.678;2022-09-17T04:46:30;99651.75;;;10.48;98.08
37778;BME280;23615;51.506;7.678;2022-09-17T04:48:56;99654.41;;;10.48;98.62
37778;BME280;23615;51.506;7.678;2022-09-17T04:51:21;99661.28;;;10.44;97.97
37778;BME280;23615;51.506;7.678;2022-09-17T04:53:46;99656.53;;;10.46;98.30
37778;BME280;23615;51.506;7.678;2022-09-17T04:56:11;99657.19;;;10.41;98.63
37778;BME280;23615;51.506;7.678;2022-09-17T04:58:37;99659.53;;;10.38;98.16
37778;BME280;23615;51.506;7.678;2022-09-17T05:01:03;99656.50;;;10.34;98.84
37778;BME280;23615;51.506;7.678;2022-09-17T05:03:28;99667.53;;;10.38;98.78
37778;BME280;23615;51.506;7.678;2022-09-17T05:05:53;99676.56;;;10.37;98.86
37778;BME280;23615;51.506;7.678;2022-09-17T05:08:19;99677.63;;;10.36;98.93
37778;BME280;23615;51.506;7.678;2022-09-17T05:10:48;99666.13;;;10.35;98.34
37778;BME280;23615;51.506;7.678;2022-09-17T05:13:14;99667.63;;;10.43;98.61
37778;BME280;23615;51.506;7.678;2022-09-17T05:15:39;99676.47;;;10.43;98.33
37778;BME280;23615;51.506;7.678;2022-09-17T05:18:04;99680.38;;;10.41;98.49
37778;BME280;23615;51.506;7.678;2022-09-17T05:20:29;99679.91;;;10.32;98.65
37778;BME280;23615;51.506;7.678;2022-09-17T05:22:55;99677.28;;;10.44;98.89
37778;BME280;23615;51.506;7.678;2022-09-17T05:25:21;99674.03;;;10.54;98.07
37778;BME280;23615;51.506;7.678;2022-09-17T05:27:49;99674.25;;;10.52;98.36
37778;BME280;23615;51.506;7.678;2022-09-17T05:30:14;99678.66;;;10.46;98.26
37778;BME280;23615;51.506;7.678;2022-09-17T05:32:39;99679.59;;;10.52;97.76
37778;BME280;23615;51.506;7.678;2022-09-17T05:35:05;99672.28;;;10.47;97.61
37778;BME280;23615;51.506;7.678;2022-09-17T05:37:31;99684.00;;;10.46;97.15
37778;BME280;23615;51.506;7.678;2022-09-17T05:39:56;99693.03;;;10.45;97.50
37778;BME280;23615;51.506;7.678;2022-09-17T05:42:21;99685.03;;;10.57;97.08
37778;BME280;23615;51.506;7.678;2022-09-17T05:44:47;99695.13;;;10.43;97.57
37778;BME280;23615;51.506;7.678;2022-09-17T05:47:12;99694.41;;;10.48;97.96
37778;BME280;23615;51.506;7.678;2022-09-17T05:49:37;99695.13;;;10.43;97.89
37778;BME280;23615;51.506;7.678;2022-09-17T05:52:02;99701.84;;;10.58;97.46
37778;BME280;23615;51.506;7.678;2022-09-17T05:54:28;99696.19;;;10.54;97.41
37778;BME280;23615;51.506;7.678;2022-09-17T05:56:54;99688.53;;;10.46;98.35
37778;BME280;23615;51.506;7.678;2022-09-17T05:59:20;99689.00;;;10.55;97.72
37778;BME280;23615;51.506;7.678;2022-09-17T06:01:45;99694.56;;;10.53;97.86
37778;BME280;23615;51.506;7.678;2022-09-17T06:04:11;99695.94;;;10.67;97.25
37778;BME280;23615;51.506;7.678;2022-09-17T06:06:37;99695.13;;;10.67;97.16
37778;BME280;23615;51.506;7.678;2022-09-17T06:09:04;99704.75;;;10.56;97.47
37778;BME280;23615;51.506;7.678;2022-09-17T06:11:29;99710.00;;;10.63;96.86
37778;BME280;23615;51.506;7.678;2022-09-17T06:13:55;99710.31;;;10.78;96.36
37778;BME280;23615;51.506;7.678;2022-09-17T06:16:21;99719.03;;;10.73;96.02
37778;BME280;23615;51.506;7.678;2022-09-17T06:18:46;99722.97;;;10.94;95.86
37778;BME280;23615;51.506;7.678;2022-09-17T06:21:11;99720.66;;;10.98;95.74
37778;BME280;23615;51.506;7.678;2022-09-17T06:23:37;99729.25;;;11.00;95.68
37778;BME280;23615;51.506;7.678;2022-09-17T06:26:04;99734.47;;;11.06;95.18
37778;BME280;23615;51.506;7.678;2022-09-17T06:28:29;99730.97;;;11.06;95.37
37778;BME280;23615;51.506;7.678;2022-09-17T06:31:00;99737.13;;;11.06;95.12
37778;BME280;23615;51.506;7.678;2022-09-17T06:33:26;99736.75;;;11.14;94.80
37778;BME280;23615;51.506;7.678;2022-09-17T06:35:58;99733.72;;;11.22;94.80
37778;BME280;23615;51.506;7.678;2022-09-17T06:38:28;99734.53;;;11.23;93.99
37778;BME280;23615;51.506;7.678;2022-09-17T06:40:54;99735.00;;;11.20;93.63
37778;BME280;23615;51.506;7.678;2022-09-17T06:43:20;99739.88;;;11.23;92.83
37778;BME280;23615;51.506;7.678;2022-09-17T06:45:59;99732.69;;;11.35;92.40
37778;BME280;23615;51.506;7.678;2022-09-17T06:48:25;99736.41;;;11.22;92.61
37778;BME280;23615;51.506;7.678;2022-09-17T06:50:52;99740.69;;;11.23;92.13
37778;BME280;23615;51.506;7.678;2022-09-17T06:53:19;99742.00;;;11.09;91.61
37778;BME280;23615;51.506;7.678;2022-09-17T06:55:45;99740.72;;;11.12;91.75
37778;BME280;23615;51.506;7.678;2022-09-17T06:58:10;99744.09;;;11.07;92.29
37778;BME280;23615;51.506;7.678;2022-09-17T07:00:36;99747.09;;;11.11;91.27
37778;BME280;23615;51.506;7.678;2022-09-17T07:03:01;99748.97;;;11.10;91.38
37778;BME280;23615;51.506;7.678;2022-09-17T07:05:27;99751.97;;;11.14;91.73
37778;BME280;23615;51.506;7.678;2022-09-17T07:07:53;99750.34;;;11.13;90.99
37778;BME280;23615;51.506;7.678;2022-09-17T07:10:19;99753.38;;;11.05;91.15
37778;BME280;23615;51.506;7.678;2022-09-17T07:12:45;99750.34;;;11.13;91.09
37778;BME280;23615;51.506;7.678;2022-09-17T07:15:11;99755.22;;;11.16;90.88
37778;BME280;23615;51.506;7.678;2022-09-17T07:17:38;99754.41;;;11.27;90.55
37778;BME280;23615;51.506;7.678;2022-09-17T07:20:05;99746.50;;;11.32;90.85
37778;BME280;23615;51.506;7.678;2022-09-17T07:22:31;99745.69;;;11.32;90.61
37778;BME280;23615;51.506;7.678;2022-09-17T07:24:57;99752.56;;;11.28;90.50
37778;BME280;23615;51.506;7.678;2022-09-17T07:27:22;99748.03;;;11.28;91.18
37778;BME280;23615;51.506;7.678;2022-09-17T07:29:47;99741.13;;;11.44;91.05
37778;BME280;23615;51.506;7.678;2022-09-17T07:32:13;99741.47;;;11.47;89.91
37778;BME280;23615;51.506;7.678;2022-09-17T07:34:38;99744.72;;;11.49;90.07
37778;BME280;23615;51.506;7.678;2022-09-17T07:37:04;99742.75;;;11.45;90.30
37778;BME280;23615;51.506;7.678;2022-09-17T07:39:29;99741.28;;;11.37;90.50
37778;BME280;23615;51.506;7.678;2022-09-17T07:41:54;99749.53;;;11.36;90.46
37778;BME280;23615;51.506;7.678;2022-09-17T07:44:19;99756.34;;;11.43;90.74
37778;BME280;23615;51.506;7.678;2022-09-17T07:46:46;99745.03;;;11.65;89.93
37778;BME280;23615;51.506;7.678;2022-09-17T07:49:11;99748.75;;;11.63;90.05
37778;BME280;23615;51.506;7.678;2022-09-17T07:51:36;99759.31;;;11.70;89.78
37778;BME280;23615;51.506;7.678;2022-09-17T07:54:02;99750.47;;;11.70;88.73
37778;BME280;23615;51.506;7.678;2022-09-17T07:56:27;99757.59;;;11.64;88.77
37778;BME280;23615;51.506;7.678;2022-09-17T07:58:53;99741.88;;;11.68;89.13
37778;BME280;23615;51.506;7.678;2022-09-17T08:01:19;99763.38;;;11.73;87.81
37778;BME280;23615;51.506;7.678;2022-09-17T08:03:49;99755.53;;;11.54;87.88
37778;BME280;23615;51.506;7.678;2022-09-17T08:06:18;99762.22;;;11.57;88.37
37778;BME280;23615;51.506;7.678;2022-09-17T08:08:44;99760.72;;;11.61;87.51
37778;BME280;23615;51.506;7.678;2022-09-17T08:11:15;99757.69;;;11.69;86.42
37778;BME280;23615;51.506;7.678;2022-09-17T08:13:41;99759.75;;;11.79;86.62
37778;BME280;23615;51.506;7.678;2022-09-17T08:16:10;99747.22;;;11.68;86.96
37778;BME280;23615;51.506;7.678;2022-09-17T08:18:38;99753.97;;;11.82;86.60
37778;BME280;23615;51.506;7.678;2022-09-17T08:21:05;99753.97;;;11.82;86.80
37778;BME280;23615;51.506;7.678;2022-09-17T08:23:33;99745.31;;;11.91;85.92
37778;BME280;23615;51.506;7.678;2022-09-17T08:26:00;99761.09;;;11.93;85.69
37778;BME280;23615;51.506;7.678;2022-09-17T08:28:27;99743.31;;;11.98;84.96
37778;BME280;23615;51.506;7.678;2022-09-17T08:30:53;99740.06;;;11.96;85.17
37778;BME280;23615;51.506;7.678;2022-09-17T08:33:19;99752.94;;;11.99;85.58
37778;BME280;23615;51.506;7.678;2022-09-17T08:35:52;99745.34;;;12.08;85.51
37778;BME280;23615;51.506;7.678;2022-09-17T08:38:18;99746.41;;;12.07;84.58
37778;BME280;23615;51.506;7.678;2022-09-17T08:43:26;99741.03;;;11.90;85.49
37778;BME280;23615;51.506;7.678;2022-09-17T08:45:53;99750.38;;;12.05;85.72
37778;BME280;23615;51.506;7.678;2022-09-17T08:48:19;99753.81;;;12.17;85.08
37778;BME280;23615;51.506;7.678;2022-09-17T08:50:45;99745.97;;;12.27;84.22
37778;BME280;23615;51.506;7.678;2022-09-17T08:56:14;99748.25;;;12.52;83.22
37778;BME280;23615;51.506;7.678;2022-09-17T08:59:13;99747.78;;;12.55;82.71
37778;BME280;23615;51.506;7.678;2022-09-17T09:01:46;99745.91;;;12.55;82.90
37778;BME280;23615;51.506;7.678;2022-09-17T09:07:28;99740.78;;;12.54;81.39
37778;BME280;23615;51.506;7.678;2022-09-17T09:12:39;99752.06;;;12.72;80.56
37778;BME280;23615;51.506;7.678;2022-09-17T09:17:51;99745.47;;;12.80;80.35
37778;BME280;23615;51.506;7.678;2022-09-17T09:20:42;99749.53;;;12.99;80.49
37778;BME280;23615;51.506;7.678;2022-09-17T09:23:13;99739.09;;;13.03;78.54
37778;BME280;23615;51.506;7.678;2022-09-17T09:25:51;99743.16;;;13.05;79.95
37778;BME280;23615;51.506;7.678;2022-09-17T09:31:01;99764.63;;;12.89;78.33
37778;BME280;23615;51.506;7.678;2022-09-17T09:33:34;99755.53;;;12.90;78.08
37778;BME280;23615;51.506;7.678;2022-09-17T09:36:01;99758.28;;;12.95;79.00
37778;BME280;23615;51.506;7.678;2022-09-17T09:38:52;99762.97;;;13.04;78.06
37778;BME280;23615;51.506;7.678;2022-09-17T09:41:48;99756.97;;;13.14;78.23
37778;BME280;23615;51.506;7.678;2022-09-17T09:44:16;99757.00;;;12.81;76.64
37778;BME280;23615;51.506;7.678;2022-09-17T09:47:01;99765.03;;;12.81;78.70
37778;BME280;23615;51.506;7.678;2022-09-17T10:00:56;99761.53;;;13.14;75.74
37778;BME280;23615;51.506;7.678;2022-09-17T10:03:26;99755.03;;;13.09;76.22
37778;BME280;23615;51.506;7.678;2022-09-17T10:06:09;99766.16;;;13.18;75.44
37778;BME280;23615;51.506;7.678;2022-09-17T10:08:40;99760.88;;;13.23;75.67
37778;BME280;23615;51.506;7.678;2022-09-17T10:13:38;99755.69;;;13.00;74.84
37778;BME280;23615;51.506;7.678;2022-09-17T10:16:24;99741.00;;;13.19;74.87
37778;BME280;23615;51.506;7.678;2022-09-17T10:21:31;99744.13;;;13.33;74.72
37778;BME280;23615;51.506;7.678;2022-09-17T10:23:58;99741.31;;;13.44;73.61
37778;BME280;23615;51.506;7.678;2022-09-17T10:26:27;99735.84;;;13.56;72.95
37778;BME280;23615;51.506;7.678;2022-09-17T10:28:59;99741.22;;;13.56;72.47
37778;BME280;23615;51.506;7.678;2022-09-17T10:31:26;99732.03;;;13.52;72.83
37778;BME280;23615;51.506;7.678;2022-09-17T10:34:01;99724.69;;;13.64;70.78
37778;BME280;23615;51.506;7.678;2022-09-17T10:36:44;99739.66;;;13.87;71.95
37778;BME280;23615;51.506;7.678;2022-09-17T10:39:35;99728.00;;;13.76;69.96
37778;BME280;23615;51.506;7.678;2022-09-17T10:42:16;99718.06;;;13.99;72.11
37778;BME280;23615;51.506;7.678;2022-09-17T10:44:55;99733.22;;;13.83;69.77
37778;BME280;23615;51.506;7.678;2022-09-17T10:47:27;99745.44;;;13.74;69.85
37778;BME280;23615;51.506;7.678;2022-09-17T10:49:58;99729.59;;;13.72;71.87
37778;BME280;23615;51.506;7.678;2022-09-17T10:52:28;99721.00;;;13.70;70.80
37778;BME280;23615;51.506;7.678;2022-09-17T10:55:15;99729.00;;;13.92;71.80
37778;BME280;23615;51.506;7.678;2022-09-17T10:57:53;99718.88;;;13.99;70.78
37778;BME280;23615;51.506;7.678;2022-09-17T11:00:22;99718.91;;;14.31;67.89
37778;BME280;23615;51.506;7.678;2022-09-17T11:11:47;99731.03;;;13.58;74.41
37778;BME280;23615;51.506;7.678;2022-09-17T11:17:07;99743.53;;;12.92;78.52
37778;BME280;23615;51.506;7.678;2022-09-17T11:20:02;99750.38;;;12.83;78.96
37778;BME280;23615;51.506;7.678;2022-09-17T11:25:41;99744.84;;;12.56;80.98
37778;BME280;23615;51.506;7.678;2022-09-17T11:28:25;99741.78;;;12.64;80.11
37778;BME280;23615;51.506;7.678;2022-09-17T11:31:17;99730.78;;;12.66;80.95
37778;BME280;23615;51.506;7.678;2022-09-17T11:36:29;99733.22;;;13.01;81.63
37778;BME280;23615;51.506;7.678;2022-09-17T11:39:02;99736.16;;;13.38;81.05
37778;BME280;23615;51.506;7.678;2022-09-17T11:41:41;99730.97;;;13.53;79.61
37778;BME280;23615;51.506;7.678;2022-09-17T11:44:21;99742.31;;;13.60;78.68
37778;BME280;23615;51.506;7.678;2022-09-17T11:46:54;99748.41;;;13.77;79.57
37778;BME280;23615;51.506;7.678;2022-09-17T11:52:10;99735.81;;;14.05;77.97
37778;BME280;23615;51.506;7.678;2022-09-17T11:54:43;99722.28;;;14.16;77.59
37778;BME280;23615;51.506;7.678;2022-09-17T11:57:33;99714.22;;;14.16;76.32
37778;BME280;23615;51.506;7.678;2022-09-17T12:00:11;99714.41;;;14.37;75.55
37778;BME280;23615;51.506;7.678;2022-09-17T12:02:50;99700.09;;;14.58;76.04
37778;BME280;23615;51.506;7.678;2022-09-17T12:07:58;99719.63;;;14.21;73.34
37778;BME280;23615;51.506;7.678;2022-09-17T12:10:44;99717.16;;;13.88;76.01
37778;BME280;23615;51.506;7.678;2022-09-17T12:13:21;99728.06;;;13.55;77.77
37778;BME280;23615;51.506;7.678;2022-09-17T12:15:58;99736.59;;;13.52;78.31
37778;BME280;23615;51.506;7.678;2022-09-17T12:18:41;99740.50;;;13.44;80.92
37778;BME280;23615;51.506;7.678;2022-09-17T12:21:13;99740.88;;;13.31;82.19
37778;BME280;23615;51.506;7.678;2022-09-17T12:24:19;99740.09;;;13.14;82.37
37778;BME280;23615;51.506;7.678;2022-09-17T12:37:51;99721.91;;;13.16;85.89
37778;BME280;23615;51.506;7.678;2022-09-17T12:40:32;99713.91;;;13.37;86.38
37778;BME280;23615;51.506;7.678;2022-09-17T12:43:08;99716.31;;;13.61;84.27
37778;BME280;23615;51.506;7.678;2022-09-17T12:48:50;99706.53;;;13.49;83.20
37778;BME280;23615;51.506;7.678;2022-09-17T12:51:50;99709.16;;;13.23;82.89
37778;BME280;23615;51.506;7.678;2022-09-17T12:54:41;99712.06;;;13.21;81.89
37778;BME280;23615;51.506;7.678;2022-09-17T13:00:09;99699.25;;;13.45;83.38
37778;BME280;23615;51.506;7.678;2022-09-17T13:02:42;99691.63;;;13.59;83.75
37778;BME280;23615;51.506;7.678;2022-09-17T13:05:25;99698.41;;;13.93;82.94
37778;BME280;23615;51.506;7.678;2022-09-17T13:08:19;99703.25;;;14.18;82.12
37778;BME280;23615;51.506;7.678;2022-09-17T13:11:06;99700.72;;;14.06;81.13
37778;BME280;23615;51.506;7.678;2022-09-17T13:16:32;99706.66;;;13.60;80.81
37778;BME280;23615;51.506;7.678;2022-09-17T13:19:58;99712.34;;;13.20;80.27
37778;BME280;23615;51.506;7.678;2022-09-17T13:22:18;99723.06;;;13.20;81.97
37778;BME280;23615;51.506;7.678;2022-09-17T13:24:45;99727.53;;;13.14;84.38
37778;BME280;23615;51.506;7.678;2022-09-17T13:27:23;99714.69;;;13.16;81.48
37778;BME280;23615;51.506;7.678;2022-09-17T13:37:34;99727.34;;;12.65;79.15
37778;BME280;23615;51.506;7.678;2022-09-17T13:40:02;99736.97;;;12.66;79.94
37778;BME280;23615;51.506;7.678;2022-09-17T13:42:30;99725.78;;;12.53;80.26
37778;BME280;23615;51.506;7.678;2022-09-17T13:45:09;99728.53;;;12.58;80.87
37778;BME280;23615;51.506;7.678;2022-09-17T13:47:39;99735.09;;;12.67;81.55
37778;BME280;23615;51.506;7.678;2022-09-17T13:50:33;99727.72;;;12.57;82.16
37778;BME280;23615;51.506;7.678;2022-09-17T13:55:46;99724.06;;;12.80;79.27
37778;BME280;23615;51.506;7.678;2022-09-17T14:05:52;99728.47;;;13.08;79.21
37778;BME280;23615;51.506;7.678;2022-09-17T14:16:51;99728.84;;;12.78;80.47
37778;BME280;23615;51.506;7.678;2022-09-17T14:19:34;99728.19;;;12.88;81.36
37778;BME280;23615;51.506;7.678;2022-09-17T14:22:16;99721.72;;;12.84;80.98
37778;BME280;23615;51.506;7.678;2022-09-17T14:24:52;99709.72;;;12.69;82.74
37778;BME280;23615;51.506;7.678;2022-09-17T14:38:13;99726.78;;;13.19;81.54
37778;BME280;23615;51.506;7.678;2022-09-17T14:43:53;99726.47;;;13.15;81.38
37778;BME280;23615;51.506;7.678;2022-09-17T14:49:18;99726.94;;;13.29;81.42
37778;BME280;23615;51.506;7.678;2022-09-17T14:51:44;99719.25;;;13.16;81.01
37778;BME280;23615;51.506;7.678;2022-09-17T14:54:20;99717.78;;;13.08;81.65
37778;BME280;23615;51.506;7.678;2022-09-17T14:56:50;99719.91;;;12.89;81.73
37778;BME280;23615;51.506;7.678;2022-09-17T15:02:00;99753.91;;;12.89;83.75
37778;BME280;23615;51.506;7.678;2022-09-17T15:04:26;99736.88;;;12.78;82.57
37778;BME280;23615;51.506;7.678;2022-09-17T15:07:04;99739.63;;;12.50;83.51
37778;BME280;23615;51.506;7.678;2022-09-17T15:09:30;99747.00;;;12.26;83.25
37778;BME280;23615;51.506;7.678;2022-09-17T15:11:57;99744.66;;;12.29;83.89
37778;BME280;23615;51.506;7.678;2022-09-17T15:14:29;99736.53;;;12.24;82.99
37778;BME280;23615;51.506;7.678;2022-09-17T15:16:57;99736.47;;;12.19;83.45
37778;BME280;23615;51.506;7.678;2022-09-17T15:19:26;99738.59;;;12.34;84.17
37778;BME280;23615;51.506;7.678;2022-09-17T15:21:54;99733.53;;;12.21;83.38
37778;BME280;23615;51.506;7.678;2022-09-17T15:25:13;99736.16;;;12.32;80.06
37778;BME280;23615;51.506;7.678;2022-09-17T15:32:23;99723.34;;;12.34;78.05
37778;BME280;23615;51.506;7.678;2022-09-17T15:37:42;99714.25;;;12.19;80.27
37778;BME280;23615;51.506;7.678;2022-09-17T15:40:14;99703.88;;;12.22;81.64
37778;BME280;23615;51.506;7.678;2022-09-17T15:42:47;99723.97;;;12.25;83.65
37778;BME280;23615;51.506;7.678;2022-09-17T15:45:25;99727.72;;;12.41;82.43
37778;BME280;23615;51.506;7.678;2022-09-17T15:47:54;99730.25;;;12.47;80.87
37778;BME280;23615;51.506;7.678;2022-09-17T15:50:27;99736.56;;;12.41;82.95
37778;BME280;23615;51.506;7.678;2022-09-17T15:55:42;99738.19;;;12.59;83.38
37778;BME280;23615;51.506;7.678;2022-09-17T15:58:21;99740.78;;;12.70;83.71
37778;BME280;23615;51.506;7.678;2022-09-17T16:08:45;99736.25;;;12.71;83.95
37778;BME280;23615;51.506;7.678;2022-09-17T16:11:16;99741.13;;;12.74;84.71
37778;BME280;23615;51.506;7.678;2022-09-17T16:13:44;99742.22;;;12.78;85.39
37778;BME280;23615;51.506;7.678;2022-09-17T16:16:15;99749.97;;;12.74;85.30
37778;BME280;23615;51.506;7.678;2022-09-17T16:18:41;99744.84;;;12.56;85.67
37778;BME280;23615;51.506;7.678;2022-09-17T16:21:09;99744.19;;;12.66;86.45